首页
METAR-TAF:

METAR-TAF

机场 :

羅曼·莫圖國際機場

科羅爾, 巴伯尔道布岛, 帛琉

纬度: 07-22N, 经度: 134-32E, 海拔: 54米

当前天气观测

该预报发布于26分钟前的01:50 UTC
风速6节,风向东转东北
温度 28°C
湿度 84%
气压 1010 hPa
能見度: 19.3公里
多云层高于1500英尺, 塔状积云.
多云层高于12000英尺
多云层高于30000英尺
小阵雨

METAR: PTRO 210150Z 06006KT 12SM -SHRA BKN015TCU BKN120 BKN300 28/25 A2983 RMK TCU ALQDS

时间: 11:16 (02:16 UTC)

预报

该预报发布于2小时和54分钟前的23:22 UTC
预报有效从21日的 00点(UTC)到 21日的 24点(UTC)
风速3节,风向北转西北
能見度: 10公里
散云层高于1600英尺
散云层高于12000英尺
附近有阵雨
短暂存在
从 21日的 00点(UTC)到 21日的 04点(UTC)
多云层高于1600英尺
小阵雨

TAF: PTRO 202322Z 2100/2124 34003KT P6SM VCSH SCT016 SCT120 TEMPO 2100/2104 -SHRA BKN016

超过4000个机场的气象观测和天气预报(METAR&TAF报告)。

可查询的气象台以黄色和红色小点在地图上表示。

将鼠标移到小点上方,可查看气象台名称。

然后点击查看天气观测和预报。

如需切换地图:点击带黑十字的绿色按钮放大地图;点击带横线的绿色按钮缩小地图;或者点击绿色箭头查看邻近地区的地图。


METAR-TAF: